createdAt,value
2023-05-10T00:01:23.827Z,2.00
2023-05-10T00:03:52.365Z,2.03
2023-05-10T00:06:20.536Z,1.75
2023-05-10T00:08:48.577Z,2.00
2023-05-10T00:11:16.718Z,1.70
2023-05-10T00:13:44.828Z,1.65
2023-05-10T00:16:14.209Z,1.88
2023-05-10T00:18:43.787Z,2.30
2023-05-10T00:21:11.950Z,2.00
2023-05-10T00:23:40.028Z,2.13
2023-05-10T00:26:08.174Z,1.83
2023-05-10T00:28:36.283Z,1.90
2023-05-10T00:31:04.503Z,1.90
2023-05-10T00:33:32.779Z,2.00
2023-05-10T00:36:02.340Z,1.90
2023-05-10T00:38:30.435Z,1.80
2023-05-10T00:40:58.533Z,1.70
2023-05-10T00:43:26.654Z,1.77
2023-05-10T00:45:54.938Z,1.40
2023-05-10T00:48:23.110Z,1.63
2023-05-10T00:50:51.216Z,1.60
2023-05-10T00:53:20.681Z,1.50
2023-05-10T00:55:48.789Z,1.70
2023-05-10T00:58:16.987Z,1.80
2023-05-10T01:00:45.381Z,2.03
2023-05-10T01:03:14.110Z,2.03
2023-05-10T01:05:42.397Z,2.20
2023-05-10T01:08:10.782Z,2.33
2023-05-10T01:10:40.314Z,2.38
2023-05-10T01:13:08.478Z,2.10
2023-05-10T01:15:36.633Z,2.20
2023-05-10T01:18:04.950Z,1.88
2023-05-10T01:20:37.224Z,1.90
2023-05-10T01:23:25.676Z,2.20
2023-05-10T01:26:24.376Z,1.90
2023-05-10T01:29:13.904Z,2.00
2023-05-10T01:35:36.865Z,2.08
2023-05-10T01:38:09.937Z,2.03
2023-05-10T01:40:39.826Z,1.90
2023-05-10T01:43:13.425Z,2.25
2023-05-10T01:45:44.590Z,1.95
2023-05-10T01:48:13.007Z,2.20
2023-05-10T01:50:44.315Z,2.10
2023-05-10T01:53:13.258Z,2.30
2023-05-10T01:55:43.504Z,2.83
2023-05-10T01:58:12.233Z,2.75
2023-05-10T02:00:42.830Z,2.92
2023-05-10T02:03:10.994Z,3.00
2023-05-10T02:05:39.124Z,2.72
2023-05-10T02:08:09.349Z,2.88
2023-05-10T02:10:37.754Z,3.15
2023-05-10T02:13:05.921Z,2.78
2023-05-10T02:15:34.040Z,2.88
2023-05-10T02:18:02.576Z,3.17
2023-05-10T02:20:30.668Z,3.08
2023-05-10T02:22:58.768Z,2.75
2023-05-10T02:25:28.178Z,2.88
2023-05-10T02:27:56.831Z,3.70
2023-05-10T02:30:24.991Z,3.13
2023-05-10T02:32:53.365Z,2.90
2023-05-10T02:35:21.675Z,2.92
2023-05-10T02:37:49.690Z,2.90
2023-05-10T02:40:18.190Z,2.50
2023-05-10T02:42:47.767Z,3.22
2023-05-10T02:45:17.672Z,2.80
2023-05-10T02:47:45.734Z,2.60
2023-05-10T02:50:14.131Z,2.47
2023-05-10T02:52:43.424Z,2.78
2023-05-10T02:55:12.054Z,2.97
2023-05-10T02:57:43.113Z,3.15
2023-05-10T03:00:13.696Z,2.67
2023-05-10T03:02:41.898Z,3.05
2023-05-10T03:05:10.389Z,2.80
2023-05-10T03:07:38.529Z,2.80
2023-05-10T03:10:07.825Z,2.90
2023-05-10T03:12:49.656Z,2.97
2023-05-10T03:15:21.794Z,3.10
2023-05-10T03:17:52.736Z,3.03
2023-05-10T03:20:24.679Z,3.33
2023-05-10T03:22:54.705Z,2.40
2023-05-10T03:25:22.975Z,2.97
2023-05-10T03:27:51.140Z,3.00
2023-05-10T03:30:20.827Z,3.92
2023-05-10T03:32:48.978Z,3.70
2023-05-10T03:35:17.139Z,3.63
2023-05-10T03:37:45.221Z,3.65
2023-05-10T03:40:13.646Z,3.83
2023-05-10T03:42:41.699Z,3.55
2023-05-10T03:45:11.335Z,3.42
2023-05-10T03:47:40.736Z,3.78
2023-05-10T03:50:09.844Z,4.88
2023-05-10T03:52:39.998Z,4.43
2023-05-10T03:55:08.738Z,5.22
2023-05-10T03:57:36.796Z,5.00
2023-05-10T04:00:05.496Z,4.43
2023-05-10T04:02:33.673Z,4.75
2023-05-10T04:05:03.614Z,4.85
2023-05-10T04:07:31.784Z,4.85
2023-05-10T04:09:59.952Z,5.20
2023-05-10T04:12:28.125Z,5.20
2023-05-10T04:14:56.134Z,5.25
2023-05-10T04:17:24.569Z,5.45
2023-05-10T04:19:54.106Z,5.60
2023-05-10T04:22:23.572Z,5.55
2023-05-10T04:24:51.918Z,5.75
2023-05-10T04:27:20.107Z,5.80
2023-05-10T04:29:48.203Z,5.47
2023-05-10T04:32:17.380Z,5.55
2023-05-10T04:34:45.488Z,5.47
2023-05-10T04:37:13.825Z,5.75
2023-05-10T04:39:43.326Z,5.95
2023-05-10T04:42:11.581Z,5.40
2023-05-10T04:44:39.699Z,6.38
2023-05-10T04:47:08.904Z,5.90
2023-05-10T04:49:37.964Z,5.93
2023-05-10T04:52:06.422Z,5.93
2023-05-10T04:54:34.518Z,6.43
2023-05-10T04:57:04.059Z,5.53
2023-05-10T04:59:32.197Z,6.22
2023-05-10T05:02:00.473Z,5.75
2023-05-10T05:04:28.618Z,5.45
2023-05-10T05:06:56.701Z,5.30
2023-05-10T05:09:24.843Z,5.90
2023-05-10T05:11:52.901Z,5.78
2023-05-10T05:14:22.959Z,5.60
2023-05-10T05:16:51.102Z,5.65
2023-05-10T05:19:19.278Z,5.38
2023-05-10T05:21:47.414Z,7.25
2023-05-10T05:24:15.765Z,5.60
2023-05-10T05:26:44.001Z,5.38
2023-05-10T05:29:12.170Z,5.63
2023-05-10T05:31:41.925Z,5.22
2023-05-10T05:34:10.039Z,6.53
2023-05-10T05:36:39.549Z,5.43
2023-05-10T05:39:07.676Z,5.90
2023-05-10T05:41:35.827Z,6.68
2023-05-10T05:44:03.872Z,5.90
2023-05-10T05:46:32.038Z,5.80
2023-05-10T05:49:01.580Z,6.28
2023-05-10T05:51:29.848Z,7.00
2023-05-10T05:53:57.898Z,6.53
2023-05-10T05:56:26.197Z,6.78
2023-05-10T05:58:54.444Z,6.13
2023-05-10T06:01:22.854Z,5.22
2023-05-10T06:03:53.186Z,6.15
2023-05-10T06:06:22.972Z,4.47
2023-05-10T06:08:51.060Z,4.47
2023-05-10T06:11:19.104Z,4.45
2023-05-10T06:13:54.218Z,4.70
2023-05-10T06:16:22.730Z,4.78
2023-05-10T06:18:51.199Z,5.50
2023-05-10T06:21:23.952Z,6.10
2023-05-10T06:23:54.839Z,5.88
2023-05-10T06:26:23.201Z,5.80
2023-05-10T06:28:53.912Z,6.22
2023-05-10T06:31:22.696Z,5.93
2023-05-10T06:33:56.747Z,7.05
2023-05-10T06:36:46.683Z,6.10
2023-05-10T06:39:24.616Z,5.95
2023-05-10T06:41:53.369Z,6.00
2023-05-10T06:44:23.654Z,6.32
2023-05-10T06:49:45.722Z,6.57
2023-05-10T06:52:18.742Z,6.13
2023-05-10T06:54:48.831Z,6.40
2023-05-10T06:57:31.852Z,6.43
2023-05-10T07:00:39.054Z,5.18
2023-05-10T07:03:12.016Z,6.28
2023-05-10T07:05:49.875Z,5.57
2023-05-10T07:08:19.369Z,5.43
2023-05-10T07:10:52.677Z,5.15
2023-05-10T07:13:21.907Z,4.47
2023-05-10T07:15:53.220Z,4.38
2023-05-10T07:18:36.211Z,4.50
2023-05-10T07:21:32.433Z,4.38
2023-05-10T07:24:02.669Z,4.20
2023-05-10T07:26:36.914Z,3.47
2023-05-10T07:29:19.053Z,3.53
2023-05-10T07:31:52.205Z,3.33
2023-05-10T07:34:31.069Z,3.78
2023-05-10T07:37:10.362Z,3.50
2023-05-10T07:39:45.348Z,3.58
2023-05-10T07:42:16.275Z,3.60
2023-05-10T07:44:50.041Z,3.00
2023-05-10T07:47:29.110Z,3.30
2023-05-10T07:50:01.559Z,3.00
2023-05-10T07:52:49.092Z,3.00
2023-05-10T07:55:21.225Z,3.13
2023-05-10T07:57:50.773Z,2.70
2023-05-10T08:00:26.068Z,2.67
2023-05-10T08:02:54.840Z,3.03
2023-05-10T08:05:35.796Z,2.22
2023-05-10T08:08:09.400Z,2.45
2023-05-10T08:13:30.808Z,2.10
2023-05-10T08:16:04.205Z,2.20
2023-05-10T08:18:35.628Z,2.00
2023-05-10T08:21:42.931Z,2.30
2023-05-10T08:27:05.638Z,1.65
2023-05-10T08:29:46.226Z,2.45
2023-05-10T08:32:18.075Z,2.55
2023-05-10T08:34:46.210Z,3.10
2023-05-10T08:37:14.686Z,2.20
2023-05-10T08:39:42.832Z,2.13
2023-05-10T08:42:12.486Z,2.40
2023-05-10T08:44:40.624Z,3.53
2023-05-10T08:47:09.454Z,2.40
2023-05-10T08:49:37.544Z,2.40
2023-05-10T08:52:06.666Z,1.75
2023-05-10T08:54:35.497Z,1.90
2023-05-10T08:57:04.157Z,1.63
2023-05-10T08:59:34.240Z,2.15
2023-05-10T09:02:02.880Z,2.20
2023-05-10T09:04:31.175Z,1.83
2023-05-10T09:06:59.488Z,2.13
2023-05-10T09:09:27.824Z,2.03
2023-05-10T09:11:56.575Z,1.63
2023-05-10T09:14:25.085Z,2.50
2023-05-10T09:16:55.357Z,1.60
2023-05-10T09:19:23.611Z,1.63
2023-05-10T09:21:51.867Z,1.50
2023-05-10T09:24:20.067Z,1.40
2023-05-10T09:26:49.858Z,1.92
2023-05-10T09:29:18.469Z,1.90
2023-05-10T09:31:48.099Z,1.40
2023-05-10T09:34:22.242Z,1.75
2023-05-10T09:36:54.804Z,1.20
2023-05-10T09:39:23.077Z,1.52
2023-05-10T09:41:52.313Z,1.50
2023-05-10T09:44:21.661Z,1.40
2023-05-10T09:46:53.863Z,1.17
2023-05-10T09:49:23.581Z,1.55
2023-05-10T09:52:04.289Z,1.40
2023-05-10T09:54:32.407Z,1.10
2023-05-10T09:57:00.450Z,1.30
2023-05-10T09:59:29.457Z,1.40
2023-05-10T10:01:59.136Z,1.30
2023-05-10T10:04:28.964Z,1.42
2023-05-10T10:07:04.722Z,1.98
2023-05-10T10:12:01.767Z,1.23
2023-05-10T10:14:30.905Z,1.20
2023-05-10T10:17:08.095Z,3.30
2023-05-10T10:19:38.601Z,1.30
2023-05-10T10:22:07.345Z,1.20
2023-05-10T10:24:35.589Z,1.05
2023-05-10T10:27:11.270Z,1.30
2023-05-10T10:29:41.725Z,1.10
2023-05-10T10:32:11.583Z,1.45
2023-05-10T10:34:41.614Z,1.17
2023-05-10T10:37:09.726Z,1.00
2023-05-10T10:39:37.971Z,1.40
2023-05-10T10:42:06.642Z,1.42
2023-05-10T10:44:42.900Z,1.52
2023-05-10T10:47:30.202Z,1.80
2023-05-10T10:50:10.536Z,1.30
2023-05-10T10:52:38.817Z,1.58
2023-05-10T10:55:09.315Z,1.65
2023-05-10T10:57:46.108Z,1.80
2023-05-10T11:00:27.707Z,1.55
2023-05-10T11:02:57.191Z,1.80
2023-05-10T11:05:43.539Z,2.10
2023-05-10T11:10:40.873Z,2.33
2023-05-10T11:13:09.506Z,1.65
2023-05-10T11:15:38.322Z,1.60
2023-05-10T11:18:22.141Z,1.38
2023-05-10T11:20:54.074Z,1.60
2023-05-10T11:23:22.377Z,1.45
2023-05-10T11:25:50.981Z,1.92
2023-05-10T11:28:19.650Z,1.50
2023-05-10T11:30:47.964Z,1.83
2023-05-10T11:33:20.724Z,2.03
2023-05-10T11:35:48.889Z,1.50
2023-05-10T11:38:18.293Z,1.40
2023-05-10T11:40:46.577Z,1.58
2023-05-10T11:43:14.742Z,1.52
2023-05-10T11:45:43.686Z,1.60
2023-05-10T11:48:11.732Z,2.08
2023-05-10T11:50:39.817Z,1.45
2023-05-10T11:53:07.879Z,1.10
2023-05-10T11:55:37.880Z,1.40
2023-05-10T11:58:06.201Z,1.60
2023-05-10T12:00:34.435Z,1.50
2023-05-10T12:03:03.588Z,1.40
2023-05-10T12:05:34.719Z,1.52
2023-05-10T12:08:16.054Z,1.27
2023-05-10T12:10:45.760Z,1.40
2023-05-10T12:13:15.242Z,1.38
2023-05-10T12:15:43.509Z,1.60
2023-05-10T12:18:12.683Z,1.20
2023-05-10T12:20:41.001Z,1.45
2023-05-10T12:23:11.015Z,1.55
2023-05-10T12:25:40.971Z,1.30
2023-05-10T12:28:11.240Z,1.63
2023-05-10T12:30:39.874Z,1.40
2023-05-10T12:33:10.621Z,1.30
2023-05-10T12:35:46.604Z,1.48
2023-05-10T12:38:29.911Z,1.92
2023-05-10T12:40:58.981Z,1.55
2023-05-10T12:43:28.547Z,2.30
2023-05-10T12:45:56.864Z,1.60
2023-05-10T12:48:25.096Z,1.83
2023-05-10T12:50:53.362Z,1.60
2023-05-10T12:53:21.731Z,1.80
2023-05-10T12:55:49.906Z,1.45
2023-05-10T12:58:34.475Z,2.50
2023-05-10T13:01:05.856Z,1.95
2023-05-10T13:03:34.009Z,1.80
2023-05-10T13:06:02.224Z,1.55
2023-05-10T13:08:34.533Z,1.48
2023-05-10T13:11:02.969Z,1.52
2023-05-10T13:13:31.205Z,1.70
2023-05-10T13:15:59.346Z,1.88
2023-05-10T13:18:31.078Z,1.33
2023-05-10T13:20:59.407Z,1.40
2023-05-10T13:23:27.687Z,1.40
2023-05-10T13:25:55.856Z,2.13
2023-05-10T13:28:24.150Z,1.60
2023-05-10T13:30:52.267Z,1.67
2023-05-10T13:33:20.525Z,1.35
2023-05-10T13:35:50.129Z,1.50
2023-05-10T13:38:19.032Z,1.60
2023-05-10T13:40:48.666Z,1.30
2023-05-10T13:43:17.154Z,1.50
2023-05-10T13:45:47.201Z,1.50
2023-05-10T13:48:17.465Z,1.30
2023-05-10T13:50:45.978Z,1.40
2023-05-10T13:53:15.734Z,1.30
2023-05-10T13:55:46.504Z,1.15
2023-05-10T13:58:14.644Z,1.50
2023-05-10T14:00:42.904Z,1.48
2023-05-10T14:03:12.412Z,1.60
2023-05-10T14:05:40.959Z,1.20
2023-05-10T14:08:10.456Z,1.40
2023-05-10T14:10:40.555Z,1.30
2023-05-10T14:13:09.104Z,2.22
2023-05-10T14:15:37.286Z,1.10
2023-05-10T14:18:05.569Z,2.08
2023-05-10T14:20:34.922Z,1.20
2023-05-10T14:23:03.036Z,1.25
2023-05-10T14:25:31.362Z,1.60
2023-05-10T14:28:01.000Z,1.75
2023-05-10T14:30:29.192Z,1.20
2023-05-10T14:32:59.578Z,1.30
2023-05-10T14:35:29.376Z,2.30
2023-05-10T14:37:57.617Z,1.33
2023-05-10T14:40:25.819Z,1.00
2023-05-10T14:42:58.059Z,1.25
2023-05-10T14:45:28.352Z,1.60
2023-05-10T14:47:56.532Z,1.60
2023-05-10T14:50:35.814Z,1.50
2023-05-10T14:53:05.246Z,1.40
2023-05-10T14:55:33.689Z,1.20
2023-05-10T14:58:02.073Z,1.30
2023-05-10T15:00:32.742Z,1.05
2023-05-10T15:03:04.660Z,1.13
2023-05-10T15:05:34.208Z,1.20
2023-05-10T15:08:03.118Z,1.27
2023-05-10T15:10:34.465Z,1.40
2023-05-10T15:13:03.229Z,1.00
2023-05-10T15:15:33.943Z,1.30
2023-05-10T15:18:02.568Z,1.33
2023-05-10T15:20:30.674Z,1.70
2023-05-10T15:22:58.736Z,1.10
2023-05-10T15:25:30.415Z,1.00
2023-05-10T15:27:58.851Z,1.30
2023-05-10T15:30:27.774Z,1.15
2023-05-10T15:32:57.826Z,1.10
2023-05-10T15:35:26.323Z,1.10
2023-05-10T15:37:54.816Z,1.00
2023-05-10T15:40:23.167Z,1.10
2023-05-10T15:42:51.517Z,1.40
2023-05-10T15:45:19.908Z,1.10
2023-05-10T15:47:49.032Z,1.23
2023-05-10T15:50:19.099Z,1.10
2023-05-10T15:52:47.782Z,1.13
2023-05-10T15:55:16.797Z,1.25
2023-05-10T15:57:45.457Z,1.20
2023-05-10T16:00:14.731Z,1.13
2023-05-10T16:02:42.983Z,1.45
2023-05-10T16:05:12.111Z,1.50
2023-05-10T16:07:42.041Z,1.15
2023-05-10T16:10:11.936Z,1.10
2023-05-10T16:12:40.169Z,1.00
2023-05-10T16:15:10.134Z,1.00
2023-05-10T16:17:38.443Z,1.70
2023-05-10T16:20:07.899Z,1.35
2023-05-10T16:22:36.415Z,1.20
2023-05-10T16:25:06.708Z,1.10
2023-05-10T16:27:35.207Z,1.50
2023-05-10T16:30:03.534Z,1.00
2023-05-10T16:32:31.735Z,0.90
2023-05-10T16:35:00.584Z,1.25
2023-05-10T16:37:29.076Z,1.13
2023-05-10T16:39:57.208Z,1.35
2023-05-10T16:42:26.729Z,1.08
2023-05-10T16:44:55.756Z,1.40
2023-05-10T16:47:26.777Z,1.10
2023-05-10T16:49:55.058Z,1.10
2023-05-10T16:52:23.998Z,1.15
2023-05-10T16:54:52.131Z,1.17
2023-05-10T16:57:20.270Z,1.13
2023-05-10T16:59:49.723Z,0.90
2023-05-10T17:02:17.809Z,1.27
2023-05-10T17:04:45.943Z,1.60
2023-05-10T17:07:14.230Z,1.40
2023-05-10T17:09:43.963Z,0.68
2023-05-10T17:12:12.216Z,0.88
2023-05-10T17:14:40.288Z,1.00
2023-05-10T17:17:09.981Z,1.00
2023-05-10T17:19:38.151Z,0.90
2023-05-10T17:22:06.339Z,1.00
2023-05-10T17:24:34.518Z,0.95
2023-05-10T17:27:03.580Z,0.80
2023-05-10T17:29:32.187Z,0.90
2023-05-10T17:32:00.411Z,0.82
2023-05-10T17:34:32.125Z,0.98
2023-05-10T17:37:00.380Z,1.00
2023-05-10T17:39:28.462Z,0.80
2023-05-10T17:41:56.692Z,0.80
2023-05-10T17:44:25.586Z,0.60
2023-05-10T17:46:53.670Z,0.80
2023-05-10T17:49:21.789Z,0.82
2023-05-10T17:51:51.299Z,1.00
2023-05-10T17:54:19.536Z,0.90
2023-05-10T17:56:47.712Z,0.90
2023-05-10T17:59:15.871Z,1.02
2023-05-10T18:01:44.027Z,1.48
2023-05-10T18:04:12.235Z,0.88
2023-05-10T18:06:40.760Z,0.98
2023-05-10T18:09:10.579Z,0.90
2023-05-10T18:11:39.493Z,0.95
2023-05-10T18:14:07.785Z,1.00
2023-05-10T18:16:36.090Z,1.00
2023-05-10T18:19:04.464Z,0.80
2023-05-10T18:21:32.737Z,1.08
2023-05-10T18:24:01.703Z,0.98
2023-05-10T18:26:34.864Z,0.80
2023-05-10T18:29:03.091Z,0.68
2023-05-10T18:31:31.255Z,0.80
2023-05-10T18:34:00.558Z,0.65
2023-05-10T18:36:28.971Z,0.65
2023-05-10T18:38:57.088Z,0.90
2023-05-10T18:41:26.843Z,0.60
2023-05-10T18:43:56.394Z,0.88
2023-05-10T18:46:24.594Z,0.68
2023-05-10T18:48:53.078Z,0.70
2023-05-10T18:51:22.243Z,1.00
2023-05-10T18:53:50.777Z,0.93
2023-05-10T18:56:18.884Z,0.63
2023-05-10T18:58:46.945Z,1.10
2023-05-10T19:01:16.947Z,0.80
2023-05-10T19:03:45.370Z,0.73
2023-05-10T19:06:13.565Z,0.90
2023-05-10T19:08:41.887Z,0.68
2023-05-10T19:11:10.077Z,0.80
2023-05-10T19:13:38.322Z,0.70
2023-05-10T19:16:07.094Z,0.68
2023-05-10T19:18:38.432Z,0.70
2023-05-10T19:21:09.400Z,0.63
2023-05-10T19:23:38.541Z,0.90
2023-05-10T19:26:06.805Z,1.00
2023-05-10T19:28:36.648Z,0.65
2023-05-10T19:31:06.234Z,0.75
2023-05-10T19:33:34.419Z,0.65
2023-05-10T19:36:04.335Z,0.90
2023-05-10T19:38:32.915Z,0.80
2023-05-10T19:41:01.012Z,0.88
2023-05-10T19:43:31.453Z,0.90
2023-05-10T19:46:01.672Z,0.93
2023-05-10T19:48:30.536Z,0.90
2023-05-10T19:51:01.737Z,0.98
2023-05-10T19:53:33.273Z,1.23
2023-05-10T19:56:08.862Z,0.80
2023-05-10T19:58:37.074Z,1.13
2023-05-10T20:01:08.081Z,1.08
2023-05-10T20:03:37.874Z,0.85
2023-05-10T20:06:07.320Z,0.85
2023-05-10T20:08:37.542Z,0.75
2023-05-10T20:11:07.003Z,1.10
2023-05-10T20:13:35.691Z,0.90
2023-05-10T20:16:05.652Z,0.80
2023-05-10T20:18:34.058Z,1.02
2023-05-10T20:21:03.035Z,1.40
2023-05-10T20:23:32.363Z,1.08
2023-05-10T20:26:03.219Z,0.85
2023-05-10T20:28:32.051Z,1.10
2023-05-10T20:31:02.160Z,1.10
2023-05-10T20:33:31.061Z,0.90
2023-05-10T20:36:00.106Z,0.88
2023-05-10T20:38:28.666Z,1.20
2023-05-10T20:40:57.074Z,1.10
2023-05-10T20:43:26.786Z,0.95
2023-05-10T20:45:55.798Z,1.08
2023-05-10T20:48:24.925Z,0.88
2023-05-10T20:50:53.183Z,1.33
2023-05-10T20:53:22.356Z,1.15
2023-05-10T20:55:50.793Z,1.10
2023-05-10T20:58:19.537Z,0.90
2023-05-10T21:00:49.948Z,1.50
2023-05-10T21:03:18.727Z,1.30
2023-05-10T21:05:47.860Z,1.95
2023-05-10T21:08:16.731Z,28.20
2023-05-10T21:10:45.581Z,7.43
2023-05-10T21:13:13.806Z,4.38
2023-05-10T21:15:42.440Z,7.53
2023-05-10T21:18:12.793Z,4.57
2023-05-10T21:20:41.413Z,2.65
2023-05-10T21:23:10.469Z,7.68
2023-05-10T21:25:39.599Z,1.30
2023-05-10T21:28:08.620Z,1.10
2023-05-10T21:30:37.444Z,1.27
2023-05-10T21:33:06.016Z,2.50
2023-05-10T21:35:36.350Z,1.17
2023-05-10T21:38:05.677Z,1.88
2023-05-10T21:40:34.766Z,1.45
2023-05-10T21:43:03.740Z,1.15
2023-05-10T21:45:33.770Z,1.60
2023-05-10T21:48:01.917Z,1.63
2023-05-10T21:50:30.228Z,1.00
2023-05-10T21:53:00.540Z,1.10
2023-05-10T21:55:28.716Z,1.25
2023-05-10T21:57:57.761Z,1.13
2023-05-10T22:00:26.533Z,1.40
2023-05-10T22:02:54.671Z,1.35
2023-05-10T22:05:22.968Z,1.20
2023-05-10T22:07:51.184Z,1.13
2023-05-10T22:10:20.827Z,1.23
2023-05-10T22:12:48.960Z,1.20
2023-05-10T22:15:17.184Z,1.20
2023-05-10T22:17:45.375Z,1.20
2023-05-10T22:20:13.816Z,1.35
2023-05-10T22:22:41.906Z,2.15
2023-05-10T22:25:10.431Z,6.88
2023-05-10T22:27:39.921Z,3.92
2023-05-10T22:30:09.711Z,2.88
2023-05-10T22:32:37.733Z,1.33
2023-05-10T22:35:06.382Z,1.60
2023-05-10T22:37:34.420Z,1.80
2023-05-10T22:40:02.507Z,1.20
2023-05-10T22:42:31.088Z,1.40
2023-05-10T22:45:00.647Z,1.33
2023-05-10T22:47:28.818Z,1.50
2023-05-10T22:49:58.282Z,1.25
2023-05-10T22:52:26.348Z,1.15
2023-05-10T22:54:54.424Z,1.10
2023-05-10T22:57:22.463Z,1.20
2023-05-10T22:59:50.516Z,1.40
2023-05-10T23:02:19.990Z,1.55
2023-05-10T23:04:48.400Z,1.27
2023-05-10T23:07:16.753Z,1.25
2023-05-10T23:09:44.868Z,1.30
2023-05-10T23:12:12.922Z,1.45
2023-05-10T23:14:41.588Z,1.38
2023-05-10T23:17:09.721Z,1.40
2023-05-10T23:19:39.148Z,1.27
2023-05-10T23:22:07.722Z,1.40
2023-05-10T23:24:36.060Z,1.33
2023-05-10T23:27:04.362Z,1.23
2023-05-10T23:29:44.589Z,1.30
2023-05-10T23:32:12.765Z,1.27
2023-05-10T23:34:42.261Z,1.40
2023-05-10T23:37:10.462Z,1.42
2023-05-10T23:39:38.519Z,1.50
2023-05-10T23:42:07.168Z,1.40
2023-05-10T23:44:35.206Z,1.42
2023-05-10T23:47:03.277Z,1.20
2023-05-10T23:49:31.352Z,1.25
2023-05-10T23:52:03.806Z,1.30
2023-05-10T23:54:31.891Z,1.30
2023-05-10T23:56:59.932Z,1.27
2023-05-10T23:59:27.972Z,1.13
